Time;durP1;ratioP1;P1;durP2;ratioP2;P2;SDS_P1;SDS_P2;PMS_P1;PMS_P2;Temp;Humidity;BMP_temperature;BMP_pressure;BME280_temperature;BME280_humidity;BME280_pressure;Samples;Min_cycle;Max_cycle;Signal;HPM_P1;HPM_P2
2021/08/30 00:00:32;;;;;;;9.35;7.92;;;;;;;14.25;76.64;100639.36;1744282;81;20995;-76
2021/08/30 00:02:59;;;;;;;9.88;8.00;;;;;;;14.27;76.59;100631.95;1709556;82;21052;-77
2021/08/30 00:05:25;;;;;;;10.88;7.65;;;;;;;14.26;76.65;100629.80;1690064;82;21146;-77
2021/08/30 00:07:51;;;;;;;9.70;7.92;;;;;;;14.24;76.68;100627.25;1705309;82;21055;-77
2021/08/30 00:10:18;;;;;;;8.18;7.37;;;;;;;14.28;76.76;100628.01;1691788;82;21091;-77
2021/08/30 00:12:45;;;;;;;8.10;7.42;;;;;;;14.30;76.77;100626.66;1680877;82;20987;-77
2021/08/30 00:15:14;;;;;;;8.58;7.78;;;;;;;14.31;76.82;100624.02;1712218;82;21052;-77
2021/08/30 00:17:41;;;;;;;8.40;7.60;;;;;;;14.32;76.87;100630.06;1704446;82;20913;-77
2021/08/30 00:20:13;;;;;;;8.85;8.00;;;;;;;14.32;76.86;100624.86;1701206;84;20877;-77
2021/08/30 00:22:39;;;;;;;11.88;8.33;;;;;;;14.36;77.00;100626.47;1704798;82;20921;-77
2021/08/30 00:25:07;;;;;;;8.55;7.70;;;;;;;14.41;76.97;100628.48;1701089;84;20952;-77
2021/08/30 00:27:33;;;;;;;8.48;7.67;;;;;;;14.42;76.96;100628.47;1704993;82;20948;-77
2021/08/30 00:30:04;;;;;;;8.20;7.40;;;;;;;14.45;77.03;100632.27;1708235;82;20932;-77
2021/08/30 00:32:31;;;;;;;8.68;7.25;;;;;;;14.47;77.06;100633.08;1699867;82;21837;-77
2021/08/30 00:34:57;;;;;;;8.25;7.55;;;;;;;14.49;77.04;100622.62;1708547;82;20909;-77
2021/08/30 00:37:24;;;;;;;8.20;7.50;;;;;;;14.51;77.10;100633.83;1703320;82;20941;-77
2021/08/30 00:39:50;;;;;;;9.03;8.13;;;;;;;14.52;77.11;100630.33;1708470;82;20889;-77
2021/08/30 00:42:19;;;;;;;8.73;7.58;;;;;;;14.55;77.15;100628.48;1711154;82;20920;-77
2021/08/30 00:44:45;;;;;;;7.60;6.90;;;;;;;14.58;77.15;100630.09;1701104;82;21421;-77
2021/08/30 00:47:13;;;;;;;8.58;7.70;;;;;;;14.57;77.18;100629.70;1708972;82;21414;-77
2021/08/30 00:49:41;;;;;;;8.50;7.80;;;;;;;14.58;77.19;100636.16;1718494;82;20881;-77
2021/08/30 00:52:08;;;;;;;8.65;7.85;;;;;;;14.61;77.28;100636.95;1698609;82;20929;-77
2021/08/30 00:54:34;;;;;;;8.83;7.95;;;;;;;14.63;77.29;100637.31;1718468;82;20944;-77
2021/08/30 00:57:03;;;;;;;7.97;7.17;;;;;;;14.63;77.29;100637.31;1695819;83;20980;-77
2021/08/30 00:59:29;;;;;;;8.10;7.12;;;;;;;14.64;77.27;100635.55;1686872;83;21139;-77
2021/08/30 01:01:56;;;;;;;8.40;7.12;;;;;;;14.63;77.30;100634.70;1687494;83;21036;-77
2021/08/30 01:04:29;;;;;;;8.03;7.25;;;;;;;14.65;77.36;100629.45;1686462;83;21080;-77
2021/08/30 01:07:04;;;;;;;8.13;7.50;;;;;;;14.65;77.30;100639.41;1693088;83;20929;-77
2021/08/30 01:09:38;;;;;;;7.37;6.78;;;;;;;14.66;77.35;100641.56;1695415;83;21754;-77
2021/08/30 01:12:22;;;;;;;7.55;6.85;;;;;;;14.66;77.37;100642.86;1699797;83;20866;-77
2021/08/30 01:15:02;;;;;;;8.40;7.60;;;;;;;14.64;77.35;100647.27;1689800;83;20865;-77
2021/08/30 01:17:31;;;;;;;6.58;5.97;;;;;;;14.64;77.40;100652.02;1683830;83;20953;-77
2021/08/30 01:20:12;;;;;;;8.58;7.45;;;;;;;14.64;77.42;100645.97;1688865;83;20873;-77
2021/08/30 01:22:42;;;;;;;7.95;7.25;;;;;;;14.63;77.43;100652.92;1688054;83;21080;-77
2021/08/30 01:25:12;;;;;;;6.45;5.87;;;;;;;14.64;77.51;100653.33;1694700;83;20869;-77
2021/08/30 01:27:43;;;;;;;6.37;5.78;;;;;;;14.65;77.49;100660.69;1668952;84;21410;-77
2021/08/30 01:30:17;;;;;;;6.28;5.75;;;;;;;14.66;77.59;100666.29;1686525;84;20947;-77
2021/08/30 01:32:52;;;;;;;5.92;5.42;;;;;;;14.67;77.63;100662.34;1694826;83;20877;-77
2021/08/30 01:35:22;;;;;;;6.25;5.75;;;;;;;14.71;77.62;100657.88;1692528;83;20882;-77
2021/08/30 01:37:53;;;;;;;7.45;6.72;;;;;;;14.71;77.62;100664.39;1692603;83;21366;-77
2021/08/30 01:40:22;;;;;;;6.17;5.67;;;;;;;14.70;77.62;100666.14;1692682;83;21754;-77
2021/08/30 01:42:52;;;;;;;6.60;6.00;;;;;;;14.70;77.58;100666.59;1702114;83;20870;-77
2021/08/30 01:45:24;;;;;;;5.97;5.50;;;;;;;14.69;77.70;100659.69;1691467;83;20929;-77
2021/08/30 01:47:53;;;;;;;6.20;5.65;;;;;;;14.66;77.63;100661.94;1702298;83;20932;-77
2021/08/30 01:50:21;;;;;;;6.03;5.53;;;;;;;14.64;77.62;100659.83;1687681;83;20954;-77
2021/08/30 01:52:51;;;;;;;6.40;5.80;;;;;;;14.62;77.64;100663.38;1667383;83;20949;-77
2021/08/30 02:00:43;;;;;;;6.12;5.50;;;;;;;14.53;77.56;100656.30;1716239;82;20893;-77
2021/08/30 02:03:29;;;;;;;6.87;5.00;;;;;;;14.48;77.65;100659.94;1706615;82;21780;-77
2021/08/30 02:06:03;;;;;;;5.42;4.92;;;;;;;14.41;77.66;100654.50;1703125;82;21903;-77
2021/08/30 02:08:34;;;;;;;5.53;5.03;;;;;;;14.35;77.64;100651.63;1709995;82;21436;-77
2021/08/30 02:11:05;;;;;;;5.15;4.62;;;;;;;14.29;77.61;100646.62;1704205;82;21383;-77
2021/08/30 02:13:31;;;;;;;6.45;5.85;;;;;;;14.23;77.65;100647.66;1702895;82;20857;-77
2021/08/30 02:16:01;;;;;;;7.30;5.80;;;;;;;14.20;77.80;100649.05;1701212;84;21460;-77
2021/08/30 02:18:48;;;;;;;6.10;5.60;;;;;;;14.20;77.81;100646.89;1713315;82;21497;-77
2021/08/30 02:21:44;;;;;;;6.08;5.50;;;;;;;14.19;77.82;100646.49;1704450;82;21655;-77
2021/08/30 02:24:15;;;;;;;5.85;5.35;;;;;;;14.16;77.85;100650.48;1701941;82;21532;-77
2021/08/30 02:27:17;;;;;;;5.03;4.62;;;;;;;14.13;77.91;100642.33;1705225;83;21937;-77
2021/08/30 02:29:50;;;;;;;5.47;5.03;;;;;;;14.13;77.91;100643.63;1690524;82;20888;-77
2021/08/30 02:32:19;;;;;;;5.30;4.90;;;;;;;14.12;77.92;100639.77;1703277;84;21484;-77
2021/08/30 02:34:51;;;;;;;6.08;5.47;;;;;;;14.11;77.95;100642.82;1698240;84;20920;-75
2021/08/30 02:37:17;;;;;;;9.38;5.85;;;;;;;14.10;77.93;100641.13;1702275;83;21385;-76
2021/08/30 02:39:49;;;;;;;5.40;4.97;;;;;;;14.10;78.05;100632.47;1702031;83;21796;-76
2021/08/30 02:42:17;;;;;;;6.42;4.95;;;;;;;14.12;78.13;100628.07;1677047;84;20944;-76
2021/08/30 02:44:44;;;;;;;6.03;5.42;;;;;;;14.15;78.18;100630.58;1680330;84;403199;-76
2021/08/30 02:47:13;;;;;;;5.12;4.62;;;;;;;14.16;78.07;100638.78;1672609;84;21568;-76
2021/08/30 02:49:42;;;;;;;3.70;3.40;;;;;;;14.17;78.10;100629.64;1671172;84;21071;-76
2021/08/30 02:52:11;;;;;;;4.10;3.75;;;;;;;14.14;77.97;100629.73;1671951;84;21586;-76
2021/08/30 02:54:39;;;;;;;4.47;4.08;;;;;;;14.13;78.11;100627.17;1694409;83;22203;-76
2021/08/30 02:57:07;;;;;;;3.95;3.58;;;;;;;14.16;78.17;100628.38;1670947;83;22279;-76
2021/08/30 02:59:37;;;;;;;4.03;3.72;;;;;;;14.14;78.09;100628.88;1701115;83;21475;-76
2021/08/30 03:02:04;;;;;;;4.87;4.47;;;;;;;14.13;78.08;100628.02;1695060;83;27848;-76
2021/08/30 03:04:32;;;;;;;4.72;4.33;;;;;;;14.12;78.11;100626.33;1690730;83;21589;-76
2021/08/30 03:07:00;;;;;;;4.85;4.35;;;;;;;14.13;78.15;100631.92;1687009;83;21419;-76
2021/08/30 03:09:27;;;;;;;5.37;4.87;;;;;;;14.12;78.11;100623.72;1692768;83;20970;-76
2021/08/30 03:11:58;;;;;;;5.05;4.55;;;;;;;14.12;78.18;100621.57;1696710;83;21433;-76
2021/08/30 03:14:26;;;;;;;5.97;4.97;;;;;;;14.14;78.20;100624.98;1694097;83;21045;-76
2021/08/30 03:17:02;;;;;;;6.12;5.55;;;;;;;14.14;78.28;100629.73;1692718;83;21501;-76
2021/08/30 03:19:30;;;;;;;8.67;6.10;;;;;;;14.16;78.29;100629.69;1680533;83;21451;-76
2021/08/30 03:21:58;;;;;;;6.92;6.22;;;;;;;14.17;78.30;100637.44;1682718;83;21560;-76
2021/08/30 03:24:25;;;;;;;9.40;6.97;;;;;;;14.18;78.31;100634.39;1703892;83;21276;-76
2021/08/30 03:26:53;;;;;;;10.80;6.72;;;;;;;14.20;78.37;100632.59;1687433;83;21120;-76
2021/08/30 03:29:21;;;;;;;8.05;7.15;;;;;;;14.19;78.32;100627.84;1651656;85;21424;-76
2021/08/30 03:31:51;;;;;;;12.18;7.45;;;;;;;14.21;78.33;100626.49;1685540;83;20986;-76
2021/08/30 03:34:18;;;;;;;10.20;7.97;;;;;;;14.21;78.35;100621.30;1688455;83;21339;-76
2021/08/30 03:36:47;;;;;;;10.50;8.70;;;;;;;14.21;78.32;100619.98;1701178;83;21381;-76
2021/08/30 03:39:14;;;;;;;12.55;8.85;;;;;;;14.21;78.37;100621.30;1687067;83;21494;-76
2021/08/30 03:41:41;;;;;;;;;;;;;;;14.23;78.50;100617.75;1699811;83;21735;-76
2021/08/30 03:44:09;;;;;;;20.08;8.83;;;;;;;14.26;78.78;100619.41;1687701;83;20842;-76
2021/08/30 03:46:40;;;;;;;19.48;9.70;;;;;;;14.28;78.56;100620.20;1694553;83;20948;-76
2021/08/30 03:49:07;;;;;;;17.50;9.95;;;;;;;14.30;78.57;100622.31;1682876;83;21179;-76
2021/08/30 03:51:36;;;;;;;15.55;9.98;;;;;;;14.31;78.62;100622.71;1687403;83;21431;-75
2021/08/30 03:54:03;;;;;;;13.50;9.73;;;;;;;14.34;78.56;100629.57;1688841;83;20906;-75
2021/08/30 03:56:31;;;;;;;10.32;9.23;;;;;;;14.34;78.60;100625.22;1685411;83;21899;-75
2021/08/30 03:58:59;;;;;;;11.80;9.40;;;;;;;14.35;78.63;100624.32;1682614;84;21453;-75
2021/08/30 04:01:25;;;;;;;10.15;9.13;;;;;;;14.37;78.65;100617.77;1680358;83;20952;-75
2021/08/30 04:03:58;;;;;;;10.98;9.50;;;;;;;14.38;78.63;100621.62;1694159;83;21311;-75
2021/08/30 04:06:25;;;;;;;13.10;10.08;;;;;;;14.36;78.47;100620.81;1658889;85;21677;-75
2021/08/30 04:08:52;;;;;;;14.78;9.70;;;;;;;14.35;78.61;100619.56;1651849;83;21437;-75
2021/08/30 04:11:19;;;;;;;12.80;9.70;;;;;;;14.37;78.74;100620.37;1672487;83;20920;-75
2021/08/30 04:13:46;;;;;;;10.18;8.85;;;;;;;14.38;78.75;100625.97;1672305;83;20912;-76
2021/08/30 04:16:12;;;;;;;9.68;8.65;;;;;;;14.38;78.73;100618.17;1679417;85;20936;-76
2021/08/30 04:18:38;;;;;;;10.30;9.25;;;;;;;14.37;78.66;100619.92;1680324;85;20916;-76
2021/08/30 04:21:04;;;;;;;9.88;8.88;;;;;;;14.36;78.70;100615.62;1681433;83;20948;-76
2021/08/30 04:23:31;;;;;;;9.88;8.88;;;;;;;14.39;78.84;100611.62;1669615;83;21528;-76
2021/08/30 04:25:57;;;;;;;11.75;9.58;;;;;;;14.40;78.79;100607.27;1680670;84;21401;-76
2021/08/30 04:28:25;;;;;;;10.08;9.08;;;;;;;14.43;78.89;100615.86;1680932;85;20957;-76
2021/08/30 04:30:53;;;;;;;9.83;8.85;;;;;;;14.45;78.79;100610.61;1674060;83;20932;-76
2021/08/30 04:33:21;;;;;;;10.65;9.25;;;;;;;14.44;78.82;100613.66;1680219;83;21868;-76
2021/08/30 04:35:48;;;;;;;11.22;9.95;;;;;;;14.45;78.89;100610.16;1674447;83;20917;-76
2021/08/30 04:38:14;;;;;;;10.00;9.10;;;;;;;14.47;78.89;100617.46;1677454;84;22446;-76
2021/08/30 04:40:41;;;;;;;10.80;9.80;;;;;;;14.48;78.88;100603.55;1676780;84;20987;-76
2021/08/30 04:43:12;;;;;;;11.93;9.65;;;;;;;14.50;78.91;100607.41;1672786;85;25367;-75
2021/08/30 04:45:39;;;;;;;11.43;8.68;;;;;;;14.51;78.95;100614.31;1678357;85;20980;-75
2021/08/30 04:48:06;;;;;;;10.58;9.43;;;;;;;14.53;79.01;100619.02;1681360;85;20944;-75
2021/08/30 04:50:33;;;;;;;10.35;9.35;;;;;;;14.54;78.99;100618.12;1674676;83;21562;-75
2021/08/30 04:52:59;;;;;;;;;;;;;;;14.55;79.02;100614.16;1671249;83;20983;-75
2021/08/30 04:55:26;;;;;;;8.75;7.92;;;;;;;14.56;79.28;100615.84;1672557;83;20270;-76
2021/08/30 04:57:53;;;;;;;9.83;8.43;;;;;;;14.57;79.08;100605.83;1672829;83;21151;-76
2021/08/30 05:00:19;;;;;;;10.25;9.28;;;;;;;14.57;79.05;100600.63;1667777;84;21051;-76
2021/08/30 05:02:45;;;;;;;9.48;8.63;;;;;;;14.62;79.17;100603.08;1668341;84;21107;-77
2021/08/30 05:05:12;;;;;;;9.98;9.18;;;;;;;14.64;79.08;100603.88;1667886;84;21647;-77
2021/08/30 05:07:38;;;;;;;10.00;9.10;;;;;;;14.66;79.11;100603.37;1660934;84;21031;-76
2021/08/30 05:10:05;;;;;;;10.08;9.08;;;;;;;14.68;79.13;100603.33;1668724;84;21044;-76
2021/08/30 05:12:33;;;;;;;10.05;9.15;;;;;;;14.67;79.09;100606.37;1664798;84;21165;-76
2021/08/30 05:15:02;;;;;;;9.48;8.68;;;;;;;14.70;79.20;100609.33;1672006;84;21022;-76
2021/08/30 05:17:28;;;;;;;9.05;8.20;;;;;;;14.72;79.18;100617.49;1673713;84;21111;-76
2021/08/30 05:19:55;;;;;;;9.95;8.70;;;;;;;14.76;79.22;100615.64;1670923;84;21092;-76
2021/08/30 05:22:21;;;;;;;10.13;8.63;;;;;;;14.79;79.25;100620.74;1666924;84;21106;-76
2021/08/30 05:24:47;;;;;;;9.88;9.08;;;;;;;14.82;79.25;100622.80;1670318;84;21586;-76
2021/08/30 05:27:14;;;;;;;9.33;8.53;;;;;;;14.84;79.28;100617.54;1668638;84;21047;-76
2021/08/30 05:29:40;;;;;;;10.75;9.63;;;;;;;14.87;79.27;100626.09;1668968;84;21068;-76
2021/08/30 05:32:07;;;;;;;10.53;9.45;;;;;;;14.90;79.27;100619.94;1666776;84;21031;-76
2021/08/30 05:34:33;;;;;;;;;;;;;;;14.90;79.22;100622.09;1661714;84;21064;-76
2021/08/30 05:37:00;;;;;;;9.63;8.73;;;;;;;14.90;79.42;100615.58;1667610;84;20502;-76
2021/08/30 05:39:29;;;;;;;9.73;8.83;;;;;;;14.94;79.32;100617.63;1665308;84;21696;-76
2021/08/30 05:41:55;;;;;;;10.05;9.05;;;;;;;14.97;79.32;100618.83;1668671;84;21044;-76
2021/08/30 05:44:21;;;;;;;10.13;9.08;;;;;;;15.00;79.31;100617.88;1668622;84;21108;-76
2021/08/30 05:46:50;;;;;;;10.35;9.35;;;;;;;15.02;79.32;100619.97;1668449;84;21099;-76
2021/08/30 05:49:16;;;;;;;10.48;9.48;;;;;;;15.05;79.30;100615.97;1669557;84;21100;-76
2021/08/30 05:51:46;;;;;;;11.60;10.03;;;;;;;15.10;79.38;100622.69;1663801;84;20942;-76
2021/08/30 05:54:12;;;;;;;10.38;9.38;;;;;;;15.16;79.40;100617.27;1659024;84;21059;-76
2021/08/30 05:56:39;;;;;;;10.82;9.93;;;;;;;15.18;79.41;100611.55;1655066;84;21143;-76
2021/08/30 05:59:05;;;;;;;10.85;9.85;;;;;;;15.27;79.46;100624.70;1663741;84;21005;-76
2021/08/30 06:01:31;;;;;;;11.08;10.08;;;;;;;15.34;79.51;100624.89;1673986;83;21068;-76
2021/08/30 06:03:58;;;;;;;10.68;9.68;;;;;;;15.39;79.44;100625.58;1674464;83;24359;-76
2021/08/30 06:06:25;;;;;;;11.50;10.50;;;;;;;15.45;79.43;100629.72;1671985;83;21080;-76
2021/08/30 06:08:51;;;;;;;11.95;10.60;;;;;;;15.47;79.45;100628.77;1670428;83;21116;-77
2021/08/30 06:11:17;;;;;;;11.65;10.45;;;;;;;15.50;79.46;100626.05;1666833;84;21057;-76
2021/08/30 06:13:43;;;;;;;11.57;10.48;;;;;;;15.54;79.47;100624.19;1674384;83;21020;-76
2021/08/30 06:16:10;;;;;;;;;;;;;;;15.58;79.44;100620.59;1669227;83;21639;-76
2021/08/30 06:18:37;;;;;;;10.80;9.73;;;;;;;15.62;79.61;100623.91;1669634;83;20284;-76
2021/08/30 06:21:03;;;;;;;12.13;10.65;;;;;;;15.68;79.48;100623.23;1674277;83;21112;-76
2021/08/30 06:23:30;;;;;;;11.45;10.35;;;;;;;15.74;79.49;100619.09;1672011;83;21091;-76
2021/08/30 06:25:58;;;;;;;;;;;;;;;15.78;79.46;100618.53;1682935;83;21132;-77
2021/08/30 06:28:29;;;;;;;12.45;11.25;;;;;;;15.82;79.70;100613.14;1669953;83;20468;-76
2021/08/30 06:30:55;;;;;;;12.82;11.53;;;;;;;15.89;79.54;100612.45;1665985;83;21593;-76
2021/08/30 06:33:22;;;;;;;15.43;12.05;;;;;;;15.96;79.58;100616.53;1680753;83;21066;-76
2021/08/30 06:35:48;;;;;;;11.22;10.20;;;;;;;16.05;79.63;100610.12;1694991;83;21112;-76
2021/08/30 06:38:15;;;;;;;13.32;11.83;;;;;;;16.10;79.48;100604.27;1692654;83;21493;-76
2021/08/30 06:40:42;;;;;;;13.55;11.85;;;;;;;16.10;79.40;100599.91;1687736;83;20946;-76
2021/08/30 06:43:08;;;;;;;13.08;11.33;;;;;;;16.13;79.46;100598.90;1680820;83;20934;-76
2021/08/30 06:45:34;;;;;;;12.43;11.22;;;;;;;16.17;79.46;100595.27;1683428;83;20914;-76
2021/08/30 06:48:01;;;;;;;11.80;10.60;;;;;;;16.17;79.41;100593.95;1676324;83;20922;-76
2021/08/30 06:50:28;;;;;;;13.78;11.35;;;;;;;16.20;79.58;100588.16;1687268;83;20926;-76
2021/08/30 06:52:54;;;;;;;11.15;10.08;;;;;;;16.24;79.51;100588.89;1686500;83;20914;-76
2021/08/30 06:55:20;;;;;;;12.00;10.90;;;;;;;16.25;79.55;100591.89;1681737;83;20965;-76
2021/08/30 06:57:47;;;;;;;11.03;10.03;;;;;;;16.27;79.57;100597.05;1692086;83;21048;-76
2021/08/30 07:00:18;;;;;;;11.05;9.95;;;;;;;16.26;79.53;100600.58;1690045;83;21078;-76
2021/08/30 07:02:45;;;;;;;11.53;10.25;;;;;;;16.26;79.52;100601.42;1676441;84;21055;-76
2021/08/30 07:05:11;;;;;;;;;;;;;;;16.27;79.58;100600.52;1676435;84;21063;-76
2021/08/30 07:07:39;;;;;;;10.75;9.65;;;;;;;16.27;79.66;100600.97;1722403;82;20250;-76
2021/08/30 07:10:06;;;;;;;10.23;9.23;;;;;;;16.26;79.60;100602.73;1721035;82;21068;-76
2021/08/30 07:12:33;;;;;;;11.80;10.60;;;;;;;16.28;79.55;100600.06;1726069;81;22234;-76
2021/08/30 07:14:59;;;;;;;12.00;10.80;;;;;;;16.27;79.58;100599.66;1718908;81;21103;-76
2021/08/30 07:17:25;;;;;;;11.68;10.58;;;;;;;16.27;79.63;100600.97;1719751;81;21100;-76
2021/08/30 07:19:52;;;;;;;14.78;11.00;;;;;;;16.30;79.64;100604.77;1722423;81;21055;-76
2021/08/30 07:22:18;;;;;;;12.23;10.35;;;;;;;16.30;79.64;100601.70;1714749;81;21000;-76
2021/08/30 07:24:44;;;;;;;11.22;10.13;;;;;;;16.32;79.62;100606.86;1717637;81;21120;-76
2021/08/30 07:27:11;;;;;;;11.05;9.95;;;;;;;16.31;79.61;100602.55;1723283;81;21111;-76
2021/08/30 07:29:38;;;;;;;10.60;9.65;;;;;;;16.32;79.67;100606.40;1719773;81;21733;-76
2021/08/30 07:32:04;;;;;;;9.55;8.65;;;;;;;16.33;79.69;100610.71;1719362;81;21103;-77
2021/08/30 07:34:31;;;;;;;10.58;9.48;;;;;;;16.35;79.66;100609.34;1721831;81;21132;-77
2021/08/30 07:36:58;;;;;;;9.90;8.90;;;;;;;16.26;79.67;100596.66;1722451;82;21115;-76
2021/08/30 07:39:25;;;;;;;9.38;8.40;;;;;;;16.40;79.66;100612.16;1722351;82;21097;-75
2021/08/30 07:41:51;;;;;;;;;;;;;;;16.44;79.74;100615.05;1725181;81;21132;-75
2021/08/30 07:44:18;;;;;;;;;;;;;;;16.48;79.93;100611.41;1720126;81;20209;-74
2021/08/30 07:46:44;;;;;;;7.85;7.25;;;;;;;16.53;79.84;100613.83;1715133;81;20218;-74
2021/08/30 07:49:11;;;;;;;7.87;7.05;;;;;;;16.59;79.79;100607.05;1681654;83;21064;-74
2021/08/30 07:51:39;;;;;;;8.55;7.65;;;;;;;16.74;79.93;100609.04;1687608;83;21104;-74
2021/08/30 07:54:07;;;;;;;7.78;7.17;;;;;;;17.00;80.05;100612.33;1686088;83;21097;-74
2021/08/30 07:56:38;;;;;;;8.40;7.62;;;;;;;17.52;80.14;100606.50;1702980;83;20909;-75
2021/08/30 07:59:02;;;;;;;8.18;7.35;;;;;;;17.83;79.69;100611.66;1693473;83;20988;-75
2021/08/30 08:01:28;;;;;;;7.03;6.42;;;;;;;18.01;79.58;100613.42;1680940;83;20988;-75
2021/08/30 08:03:55;;;;;;;5.53;5.10;;;;;;;18.09;79.36;100609.14;1671754;85;21107;-76
2021/08/30 08:06:21;;;;;;;7.00;5.45;;;;;;;18.07;79.22;100609.67;1667631;83;21615;-75
2021/08/30 08:08:48;;;;;;;6.22;5.67;;;;;;;18.06;79.24;100609.28;1666516;83;21111;-75
2021/08/30 08:11:14;;;;;;;6.40;5.30;;;;;;;18.04;79.25;100611.98;1641518;86;21060;-75
2021/08/30 08:13:41;;;;;;;6.53;5.92;;;;;;;18.00;79.20;100612.19;1647791;85;21067;-75
2021/08/30 08:16:07;;;;;;;5.80;4.50;;;;;;;17.95;79.22;100609.78;1648262;86;21071;-75
2021/08/30 08:18:33;;;;;;;5.90;5.40;;;;;;;17.92;79.17;100613.00;1655798;85;21115;-77
2021/08/30 08:21:04;;;;;;;6.20;4.85;;;;;;;17.90;79.26;100609.15;1537915;85;10001007;-75
2021/08/30 08:23:36;;;;;;;6.58;5.78;;;;;;;17.94;79.42;100611.16;1679142;83;21414;-76
2021/08/30 08:26:03;;;;;;;5.58;5.15;;;;;;;17.98;79.38;100608.80;1654839;84;21419;-76
2021/08/30 08:28:29;;;;;;;5.40;5.00;;;;;;;18.01;79.24;100614.73;1654139;84;21089;-76
2021/08/30 08:30:56;;;;;;;6.17;5.62;;;;;;;17.99;79.10;100612.65;1660751;84;21091;-76
2021/08/30 08:33:22;;;;;;;6.00;5.50;;;;;;;17.94;79.17;100613.32;1660288;84;21068;-76
2021/08/30 08:35:48;;;;;;;5.60;5.10;;;;;;;17.94;79.23;100615.94;1662499;84;21132;-76
2021/08/30 08:38:14;;;;;;;5.40;4.90;;;;;;;17.94;79.21;100619.86;1550244;84;10000960;-76
2021/08/30 08:40:41;;;;;;;6.28;5.67;;;;;;;17.94;79.22;100618.55;1664361;84;25704;-76
2021/08/30 08:43:14;;;;;;;5.90;5.17;;;;;;;17.94;79.16;100615.94;1665528;84;21036;-76
2021/08/30 08:45:42;;;;;;;4.67;4.28;;;;;;;17.97;79.12;100617.56;1670259;84;20909;-76
2021/08/30 08:48:09;;;;;;;5.30;4.75;;;;;;;18.03;79.15;100614.66;1664169;84;20933;-75
2021/08/30 08:50:36;;;;;;;4.90;4.50;;;;;;;18.10;79.16;100617.38;1656662;84;20960;-76
2021/08/30 08:53:05;;;;;;;4.50;4.08;;;;;;;18.17;79.08;100622.25;1660214;84;24302;-76
2021/08/30 08:55:37;;;;;;;5.47;4.97;;;;;;;18.22;79.08;100618.55;1661537;84;21127;-76
2021/08/30 08:58:16;;;;;;;5.25;4.85;;;;;;;18.31;79.07;100615.03;1663536;84;21357;-76
2021/08/30 09:00:56;;;;;;;5.05;4.55;;;;;;;18.37;79.00;100614.73;1658795;84;21067;-76
2021/08/30 09:03:22;;;;;;;5.00;4.60;;;;;;;18.41;78.93;100615.44;1650019;84;21005;-76
2021/08/30 09:06:02;;;;;;;5.20;4.70;;;;;;;18.48;78.92;100615.53;1662587;84;20897;-76
2021/08/30 09:08:33;;;;;;;3.90;3.60;;;;;;;18.50;78.82;100607.98;1654432;84;20972;-76
2021/08/30 09:11:00;;;;;;;3.37;3.17;;;;;;;18.58;78.77;100609.38;1655548;85;20968;-76
2021/08/30 09:13:29;;;;;;;4.25;3.85;;;;;;;18.64;78.78;100607.34;1657359;84;20956;-76
2021/08/30 09:15:56;;;;;;;3.25;3.00;;;;;;;18.73;78.77;100604.70;1663830;84;20918;-76
2021/08/30 09:18:29;;;;;;;3.90;3.55;;;;;;;18.74;78.52;100600.69;1669059;85;20949;-76
2021/08/30 09:21:12;;;;;;;3.65;3.35;;;;;;;18.71;78.47;100605.27;1662686;84;20984;-77
2021/08/30 09:23:40;;;;;;;3.60;3.30;;;;;;;18.72;78.35;100608.24;1661155;84;21023;-76
2021/08/30 09:26:09;;;;;;;3.47;3.17;;;;;;;18.73;78.51;100602.92;1658559;84;20934;-76
2021/08/30 09:28:38;;;;;;;3.42;3.12;;;;;;;18.77;78.51;100597.92;1652161;84;21551;-76
2021/08/30 09:31:04;;;;;;;3.70;3.40;;;;;;;18.81;78.48;100596.00;1658632;84;20920;-77
2021/08/30 09:33:35;;;;;;;4.37;4.08;;;;;;;18.88;78.45;100597.84;1653700;84;20924;-77
2021/08/30 09:36:03;;;;;;;4.20;3.80;;;;;;;18.93;78.32;100594.53;1657024;84;21386;-77
2021/08/30 09:38:35;;;;;;;4.35;4.00;;;;;;;18.97;78.23;100598.23;1651547;85;21118;-77
2021/08/30 09:41:10;;;;;;;4.62;4.33;;;;;;;19.04;78.22;100592.21;1654770;84;21091;-77
2021/08/30 09:43:37;;;;;;;6.28;4.47;;;;;;;19.10;78.08;100587.97;1653080;84;20937;-77
2021/08/30 09:46:06;;;;;;;4.50;4.17;;;;;;;19.14;78.10;100592.97;1639789;85;21107;-77
2021/08/30 09:48:34;;;;;;;6.47;4.92;;;;;;;19.23;78.13;100589.03;1657984;84;21059;-77
2021/08/30 09:51:04;;;;;;;5.00;4.60;;;;;;;19.32;78.08;100589.83;1650469;84;21083;-77
2021/08/30 09:53:34;;;;;;;10.38;8.05;;;;;;;19.35;77.91;100579.64;1659683;84;21052;-77
2021/08/30 09:56:02;;;;;;;14.85;9.65;;;;;;;19.38;77.85;100587.34;1650986;84;21127;-77
2021/08/30 09:58:30;;;;;;;6.78;6.08;;;;;;;19.42;77.87;100591.03;1660756;84;20989;-77
2021/08/30 10:01:00;;;;;;;8.48;6.45;;;;;;;19.48;77.81;100592.02;1660979;85;21068;-77
2021/08/30 10:03:39;;;;;;;6.28;5.12;;;;;;;19.54;77.76;100590.88;1667990;84;21669;-77
2021/08/30 10:06:00;;;;;;;6.75;5.42;;;;;;;19.52;77.55;100594.52;1683537;83;21088;-77
2021/08/30 10:08:28;;;;;;;5.67;5.03;;;;;;;19.46;77.51;100595.19;1671742;83;21068;-77
2021/08/30 10:10:55;;;;;;;6.37;4.97;;;;;;;19.42;77.46;100596.28;1669886;83;21041;-77
2021/08/30 10:13:22;;;;;;;5.75;5.25;;;;;;;19.42;77.52;100596.28;1691540;82;21116;-77
2021/08/30 10:15:50;;;;;;;6.30;5.80;;;;;;;19.43;77.46;100598.44;1677324;83;21084;-77
2021/08/30 10:18:21;;;;;;;10.20;8.83;;;;;;;19.37;77.33;100594.37;1686500;84;20894;-77
2021/08/30 10:20:50;;;;;;;10.98;9.98;;;;;;;19.37;77.36;100599.61;1685065;83;20993;-77
2021/08/30 10:23:19;;;;;;;11.93;10.72;;;;;;;19.34;77.27;100592.37;1686707;83;21069;-77
2021/08/30 10:26:01;;;;;;;12.28;11.05;;;;;;;19.28;77.23;100600.09;1681899;83;21465;-77
2021/08/30 10:28:38;;;;;;;22.05;15.70;;;;;;;19.24;77.21;100600.33;1684692;84;21136;-77
2021/08/30 10:31:18;;;;;;;11.85;10.65;;;;;;;19.17;77.12;100598.05;1676694;83;21072;-77
2021/08/30 10:33:48;;;;;;;10.23;9.23;;;;;;;19.15;77.20;100593.36;1671663;83;21148;-77
2021/08/30 10:36:17;;;;;;;9.13;8.43;;;;;;;19.19;77.13;100601.91;1671313;83;21040;-77
2021/08/30 10:39:02;;;;;;;9.78;8.88;;;;;;;19.22;77.13;100600.44;1668762;83;20950;-77
2021/08/30 10:41:41;;;;;;;7.20;6.65;;;;;;;19.27;77.15;100597.08;1674299;83;21568;-77
2021/08/30 10:44:14;;;;;;;7.60;6.92;;;;;;;19.30;77.03;100598.23;1675810;83;21032;-77
2021/08/30 10:46:48;;;;;;;8.05;7.35;;;;;;;19.30;76.85;100595.61;1662106;83;21103;-77
2021/08/30 10:49:18;;;;;;;8.25;7.50;;;;;;;19.24;76.76;100595.94;1668282;83;21090;-77
2021/08/30 10:52:12;;;;;;;7.87;7.15;;;;;;;19.21;76.75;100592.66;1675105;83;20934;-77
2021/08/30 10:54:57;;;;;;;8.05;7.35;;;;;;;19.16;76.60;100596.83;1672089;85;20973;-77
2021/08/30 10:57:37;;;;;;;8.38;7.67;;;;;;;19.15;76.74;100598.59;1675039;84;21033;-77
2021/08/30 11:00:08;;;;;;;7.40;6.78;;;;;;;19.18;76.73;100598.44;1681747;84;21145;-77
2021/08/30 11:02:48;;;;;;;8.63;7.87;;;;;;;19.19;76.62;100595.36;1678588;83;21321;-77
2021/08/30 11:05:27;;;;;;;7.55;6.78;;;;;;;19.20;76.57;100600.98;1667441;83;21124;-77
2021/08/30 11:07:55;;;;;;;9.48;7.72;;;;;;;19.22;76.56;100593.04;1670192;83;21277;-77
2021/08/30 11:10:25;;;;;;;8.23;7.42;;;;;;;19.25;76.47;100594.16;1669605;83;21584;-77
2021/08/30 11:12:52;;;;;;;7.42;6.72;;;;;;;19.27;76.40;100597.08;1677246;83;20922;-77
2021/08/30 11:15:18;;;;;;;7.87;7.17;;;;;;;19.26;76.35;100594.08;1679629;83;21323;-77
2021/08/30 11:17:45;;;;;;;6.97;6.37;;;;;;;19.26;76.29;100594.08;1683061;84;21009;-77
2021/08/30 11:20:18;;;;;;;6.87;6.28;;;;;;;19.28;76.26;100588.75;1680284;84;21584;-77
2021/08/30 11:22:56;;;;;;;7.05;6.37;;;;;;;19.33;76.23;100591.52;1680347;83;20934;-78
2021/08/30 11:25:23;;;;;;;10.48;5.92;;;;;;;19.39;76.22;100602.16;1672244;83;20939;-78
2021/08/30 11:27:50;;;;;;;;;;;;;;;19.41;76.12;100597.67;1658893;83;20953;-77
2021/08/30 11:30:19;;;;;;;6.42;5.83;;;;;;;19.41;75.67;100602.45;1681698;83;20143;-77
2021/08/30 11:32:50;;;;;;;7.40;6.03;;;;;;;19.41;75.91;100602.45;1684843;83;20970;-78
2021/08/30 11:35:16;;;;;;;6.90;6.33;;;;;;;19.38;75.89;100605.23;1690909;83;20902;-77
2021/08/30 11:37:43;;;;;;;6.90;6.30;;;;;;;19.39;75.91;100599.06;1700306;83;20922;-77